Time;durP1;ratioP1;P1;durP2;ratioP2;P2;SDS_P1;SDS_P2;PMS_P1;PMS_P2;Temp;Humidity;BMP_temperature;BMP_pressure;BME280_temperature;BME280_humidity;BME280_pressure;Samples;Min_cycle;Max_cycle;Signal;HPM_P1;HPM_P2
2021/05/15 00:00:00;;;;;;;1.10;1.10;;;7.90;99.90;;;;;;4905207;29;20800;-78
2021/05/15 00:02:26;;;;;;;1.33;1.23;;;7.90;99.90;;;;;;4931670;29;20769;-84
2021/05/15 00:04:51;;;;;;;7.00;1.35;;;7.90;99.90;;;;;;4924436;29;20492;-79
2021/05/15 00:07:17;;;;;;;1.80;1.10;;;7.90;99.90;;;;;;4933065;29;20402;-77
2021/05/15 00:09:42;;;;;;;1.40;1.30;;;8.00;99.90;;;;;;4929933;29;20892;-80
2021/05/15 00:12:08;;;;;;;1.40;1.30;;;7.90;99.90;;;;;;4934974;28;20421;-87
2021/05/15 00:14:34;;;;;;;1.13;1.13;;;7.90;99.90;;;;;;4915994;29;20464;-74
2021/05/15 00:17:01;;;;;;;1.30;1.20;;;7.90;99.90;;;;;;4894346;29;20415;-78
2021/05/15 00:19:26;;;;;;;1.30;1.20;;;7.90;99.90;;;;;;4904653;29;20423;-77
2021/05/15 00:21:52;;;;;;;1.35;1.20;;;7.90;99.90;;;;;;4912086;29;20410;-78
2021/05/15 00:24:18;;;;;;;1.50;1.40;;;7.80;99.90;;;;;;4900326;29;20402;-81
2021/05/15 00:26:43;;;;;;;1.05;1.05;;;7.70;99.90;;;;;;4933390;29;20426;-75
2021/05/15 00:29:09;;;;;;;1.20;1.20;;;7.60;99.90;;;;;;4925861;29;21174;-81
2021/05/15 00:31:35;;;;;;;1.00;1.00;;;7.60;99.90;;;;;;4900274;29;20426;-78
2021/05/15 00:34:01;;;;;;;1.10;1.10;;;7.60;99.90;;;;;;4897203;28;20421;-75
2021/05/15 00:36:27;;;;;;;1.27;1.17;;;7.60;99.90;;;;;;4928363;28;20891;-80
2021/05/15 00:38:52;;;;;;;1.27;1.20;;;7.50;99.90;;;;;;4917514;28;21078;-74
2021/05/15 00:41:18;;;;;;;1.53;1.40;;;7.50;99.90;;;;;;4907019;28;20409;-78
2021/05/15 00:43:58;;;;;;;1.33;1.23;;;7.50;99.90;;;;;;4928393;28;25961;-79
2021/05/15 00:46:26;;;;;;;1.40;1.30;;;7.40;99.90;;;;;;4932448;28;20408;-74
2021/05/15 00:48:52;;;;;;;2.40;1.60;;;7.30;99.90;;;;;;4908982;28;21006;-78
2021/05/15 00:51:17;;;;;;;1.50;1.40;;;7.40;99.90;;;;;;4934700;28;20410;-75
2021/05/15 00:53:43;;;;;;;2.20;1.58;;;7.30;99.90;;;;;;4930818;29;20914;-75
2021/05/15 00:56:09;;;;;;;1.53;1.40;;;7.20;99.90;;;;;;4935385;28;21067;-78
2021/05/15 00:58:34;;;;;;;1.60;1.50;;;7.20;99.90;;;;;;4937957;28;20407;-79
2021/05/15 01:01:00;;;;;;;1.63;1.53;;;7.10;99.90;;;;;;4927026;28;20399;-79
2021/05/15 01:03:25;;;;;;;1.70;1.50;;;7.10;99.90;;;;;;4937196;28;20430;-75
2021/05/15 01:05:51;;;;;;;3.33;1.80;;;7.10;99.90;;;;;;4922856;28;20394;-80
2021/05/15 01:08:18;;;;;;;2.08;1.88;;;7.20;99.90;;;;;;4942958;28;20494;-82
2021/05/15 01:10:44;;;;;;;1.90;1.80;;;7.10;99.90;;;;;;4939346;28;20482;-77
2021/05/15 01:13:12;;;;;;;1.70;1.60;;;7.10;99.90;;;;;;4918487;29;20813;-80
2021/05/15 01:15:38;;;;;;;1.85;1.75;;;7.10;99.90;;;;;;4932361;28;20405;-75
2021/05/15 01:18:04;;;;;;;5.10;1.57;;;7.10;99.90;;;;;;4918442;29;21172;-79
2021/05/15 01:20:32;;;;;;;1.70;1.60;;;7.10;99.90;;;;;;4929064;29;21075;-78
2021/05/15 01:22:59;;;;;;;1.60;1.50;;;7.00;99.90;;;;;;4910718;29;20846;-78
2021/05/15 01:25:24;;;;;;;1.65;1.55;;;6.90;99.90;;;;;;4894840;29;20419;-77
2021/05/15 01:27:50;;;;;;;1.87;1.50;;;7.00;99.90;;;;;;4899016;29;20406;-83
2021/05/15 01:30:16;;;;;;;1.60;1.50;;;7.00;99.90;;;;;;4918327;28;20434;-76
2021/05/15 01:32:45;;;;;;;1.65;1.55;;;7.00;99.90;;;;;;4906425;28;20419;-80
2021/05/15 01:35:11;;;;;;;3.88;1.92;;;6.90;99.90;;;;;;4914424;29;21942;-79
2021/05/15 01:37:37;;;;;;;1.60;1.50;;;6.80;99.90;;;;;;4937493;28;20432;-79
2021/05/15 01:40:04;;;;;;;2.13;1.70;;;6.80;99.90;;;;;;4927394;28;20413;-77
2021/05/15 01:42:30;;;;;;;2.17;1.65;;;6.70;99.90;;;;;;4905665;28;20414;-84
2021/05/15 01:44:56;;;;;;;3.00;1.93;;;6.60;99.90;;;;;;4930471;28;20423;-83
2021/05/15 01:47:22;;;;;;;1.65;1.55;;;6.60;99.90;;;;;;4903467;29;20475;-88
2021/05/15 01:49:47;;;;;;;1.90;1.73;;;6.70;99.90;;;;;;4902572;29;20493;-82
2021/05/15 01:52:14;;;;;;;3.60;1.80;;;6.70;99.90;;;;;;4931568;28;20417;-73
2021/05/15 01:54:39;;;;;;;2.10;1.90;;;6.70;99.90;;;;;;4923927;28;20919;-82
2021/05/15 01:57:05;;;;;;;2.27;2.07;;;6.70;99.90;;;;;;4904777;28;20408;-78
2021/05/15 01:59:31;;;;;;;5.03;2.15;;;6.70;99.90;;;;;;4897534;29;20929;-75
2021/05/15 02:01:56;;;;;;;1.77;1.60;;;6.60;99.90;;;;;;4917112;28;20412;-79
2021/05/15 02:04:22;;;;;;;2.00;1.80;;;6.70;99.90;;;;;;4914534;28;20476;-78
2021/05/15 02:06:48;;;;;;;2.45;1.98;;;6.70;99.90;;;;;;4901556;29;20482;-84
2021/05/15 02:09:13;;;;;;;2.33;1.97;;;6.60;99.90;;;;;;4929344;28;20912;-76
2021/05/15 02:11:39;;;;;;;2.08;1.88;;;6.60;99.90;;;;;;4892867;29;20410;-83
2021/05/15 02:14:05;;;;;;;1.73;1.63;;;6.50;99.90;;;;;;4918018;28;20390;-79
2021/05/15 02:16:30;;;;;;;1.67;1.58;;;6.50;99.90;;;;;;4925226;28;20415;-81
2021/05/15 02:18:56;;;;;;;1.60;1.50;;;6.50;99.90;;;;;;4939506;29;20401;-77
2021/05/15 02:21:22;;;;;;;3.33;1.80;;;6.50;99.90;;;;;;4929474;29;20510;-76
2021/05/15 02:23:47;;;;;;;4.00;1.50;;;6.50;99.90;;;;;;4911390;29;20429;-76
2021/05/15 02:26:13;;;;;;;1.90;1.80;;;6.40;99.90;;;;;;4926059;29;20492;-77
2021/05/15 02:28:39;;;;;;;1.77;1.50;;;6.40;99.90;;;;;;4931003;29;20471;-73
2021/05/15 02:31:04;;;;;;;2.50;1.67;;;6.40;99.90;;;;;;4914473;29;20401;-77
2021/05/15 02:33:30;;;;;;;1.40;1.30;;;6.40;99.90;;;;;;4914582;29;20469;-78
2021/05/15 02:35:56;;;;;;;1.50;1.40;;;6.30;99.90;;;;;;4928388;29;20412;-82
2021/05/15 02:38:21;;;;;;;1.10;1.10;;;6.30;99.90;;;;;;4927587;29;20400;-76
2021/05/15 02:40:47;;;;;;;1.40;1.30;;;6.30;99.90;;;;;;4913366;29;20422;-80
2021/05/15 02:43:16;;;;;;;1.40;1.30;;;6.20;99.90;;;;;;4911511;29;20496;-82
2021/05/15 02:45:42;;;;;;;1.40;1.30;;;6.10;99.90;;;;;;4908440;29;20410;-76
2021/05/15 02:48:08;;;;;;;1.40;1.30;;;6.10;99.90;;;;;;4908528;29;20411;-75
2021/05/15 02:50:33;;;;;;;1.55;1.45;;;6.10;99.90;;;;;;4910576;29;20471;-84
2021/05/15 02:52:59;;;;;;;1.40;1.30;;;6.10;99.90;;;;;;4890209;29;20844;-82
2021/05/15 02:55:25;;;;;;;1.15;1.15;;;6.00;99.90;;;;;;4911234;29;20428;-81
2021/05/15 02:57:51;;;;;;;1.33;1.23;;;6.00;99.90;;;;;;4923004;28;20473;-80
2021/05/15 03:00:19;;;;;;;1.30;1.20;;;6.00;99.90;;;;;;4915768;29;20403;-79
2021/05/15 03:02:45;;;;;;;0.90;0.90;;;6.00;99.90;;;;;;4923017;29;20515;-76
2021/05/15 03:05:12;;;;;;;1.07;1.03;;;6.00;99.90;;;;;;4888914;29;21163;-80
2021/05/15 03:07:38;;;;;;;1.63;1.00;;;5.90;99.90;;;;;;4908152;29;20485;-78
2021/05/15 03:10:05;;;;;;;0.80;0.80;;;6.00;99.90;;;;;;4901235;29;20508;-78
2021/05/15 03:12:30;;;;;;;1.20;1.10;;;6.00;99.90;;;;;;4933747;29;20401;-79
2021/05/15 03:14:56;;;;;;;1.13;1.13;;;6.00;99.90;;;;;;4900864;29;20439;-76
2021/05/15 03:17:22;;;;;;;0.90;0.90;;;5.90;99.90;;;;;;4932518;29;20485;-81
2021/05/15 03:19:48;;;;;;;1.20;1.10;;;5.90;99.90;;;;;;4899756;29;20395;-80
2021/05/15 03:22:14;;;;;;;1.13;1.03;;;5.90;99.90;;;;;;4933505;29;20929;-77
2021/05/15 03:24:39;;;;;;;1.00;1.00;;;5.90;99.90;;;;;;4896517;29;20402;-80
2021/05/15 03:27:05;;;;;;;1.08;1.08;;;5.90;99.90;;;;;;4933450;29;20812;-77
2021/05/15 03:29:31;;;;;;;1.33;1.07;;;5.90;99.90;;;;;;4920645;29;20415;-75
2021/05/15 03:31:57;;;;;;;0.98;0.98;;;5.90;99.90;;;;;;4920681;29;20402;-79
2021/05/15 03:34:23;;;;;;;1.30;1.20;;;5.80;99.90;;;;;;4910078;29;20795;-79
2021/05/15 03:36:48;;;;;;;1.10;1.10;;;5.80;99.90;;;;;;4915027;28;20406;-80
2021/05/15 03:39:18;;;;;;;1.30;1.20;;;5.80;99.90;;;;;;4921594;29;20410;-76
2021/05/15 03:41:47;;;;;;;1.10;1.10;;;5.90;99.90;;;;;;4929809;29;20406;-78
2021/05/15 03:44:13;;;;;;;1.33;1.23;;;5.90;99.90;;;;;;4920495;29;20412;-76
2021/05/15 03:46:39;;;;;;;1.40;1.30;;;6.00;99.90;;;;;;4913836;29;20412;-76
2021/05/15 03:49:05;;;;;;;1.88;1.13;;;6.00;99.90;;;;;;4911713;29;21135;-75
2021/05/15 03:51:31;;;;;;;1.10;1.10;;;6.00;99.90;;;;;;4923049;29;20435;-75
2021/05/15 03:53:57;;;;;;;1.00;1.00;;;6.10;99.90;;;;;;4930657;29;21543;-74
2021/05/15 03:56:22;;;;;;;1.08;1.08;;;6.10;99.90;;;;;;4926607;29;20424;-78
2021/05/15 03:58:48;;;;;;;3.17;1.10;;;6.20;99.90;;;;;;4914841;28;20410;-78
2021/05/15 04:01:14;;;;;;;0.90;0.90;;;6.20;99.90;;;;;;4919218;29;20852;-75
2021/05/15 04:03:39;;;;;;;0.98;0.98;;;6.30;99.90;;;;;;4925429;29;20499;-74
2021/05/15 04:06:05;;;;;;;1.00;1.00;;;6.50;99.90;;;;;;4922496;29;20504;-77
2021/05/15 04:08:31;;;;;;;0.90;0.90;;;6.40;99.90;;;;;;4907286;29;20435;-79
2021/05/15 04:10:56;;;;;;;1.10;1.10;;;6.50;99.90;;;;;;4925785;28;20433;-78
2021/05/15 04:13:31;;;;;;;0.90;0.90;;;6.50;99.90;;;;;;4919592;29;20396;-79
2021/05/15 04:16:00;;;;;;;1.15;1.05;;;6.60;99.90;;;;;;4922520;29;20426;-79
2021/05/15 04:18:28;;;;;;;1.20;1.10;;;6.70;99.90;;;;;;4942067;28;20423;-77
2021/05/15 04:20:54;;;;;;;1.17;1.05;;;6.80;99.90;;;;;;4910468;29;20995;-82
2021/05/15 04:23:19;;;;;;;1.38;1.27;;;6.80;99.90;;;;;;4916882;29;20412;-78
2021/05/15 04:25:45;;;;;;;0.80;0.80;;;6.90;99.90;;;;;;4912180;29;21173;-83
2021/05/15 04:28:11;;;;;;;0.85;0.85;;;7.00;99.90;;;;;;4916020;29;20425;-75
2021/05/15 04:30:36;;;;;;;1.00;1.00;;;7.20;99.90;;;;;;4931552;29;20402;-79
2021/05/15 04:33:02;;;;;;;0.90;0.90;;;7.30;99.90;;;;;;4916289;29;20398;-81
2021/05/15 04:35:32;;;;;;;1.00;1.00;;;7.40;99.90;;;;;;4928759;29;20438;-75
2021/05/15 04:37:58;;;;;;;1.08;1.00;;;7.60;99.90;;;;;;4887038;29;20757;-84
2021/05/15 04:40:23;;;;;;;2.17;1.35;;;7.70;99.90;;;;;;4916265;29;20398;-77
2021/05/15 04:42:49;;;;;;;1.33;1.27;;;7.70;99.90;;;;;;4897754;29;20398;-77
2021/05/15 04:45:15;;;;;;;1.40;1.30;;;7.80;99.90;;;;;;4896840;29;20422;-77
2021/05/15 04:47:41;;;;;;;1.90;1.30;;;7.80;99.90;;;;;;4913744;29;20406;-86
2021/05/15 04:50:08;;;;;;;1.70;1.50;;;7.90;99.90;;;;;;4928483;28;20433;-80
2021/05/15 04:52:34;;;;;;;1.55;1.45;;;8.00;99.90;;;;;;4901755;29;20410;-79
2021/05/15 04:54:59;;;;;;;1.50;1.40;;;8.10;99.90;;;;;;4905113;29;20403;-85
2021/05/15 04:57:25;;;;;;;1.30;1.30;;;8.20;99.90;;;;;;4916926;29;20404;-86
2021/05/15 04:59:50;;;;;;;1.70;1.60;;;8.30;99.90;;;;;;4905362;29;20449;-87
2021/05/15 05:02:16;;;;;;;1.85;1.60;;;8.30;99.90;;;;;;4899537;29;20400;-77
2021/05/15 05:04:42;;;;;;;2.67;1.47;;;8.40;99.90;;;;;;4901013;29;20398;-78
2021/05/15 05:07:07;;;;;;;1.67;1.58;;;8.50;99.90;;;;;;4900547;29;20410;-77
2021/05/15 05:09:33;;;;;;;3.97;3.57;;;8.60;99.90;;;;;;4932215;29;20398;-79
2021/05/15 05:11:59;;;;;;;4.07;3.67;;;8.70;99.90;;;;;;4916510;29;20421;-77
2021/05/15 05:14:24;;;;;;;4.47;4.07;;;8.80;99.90;;;;;;4932456;29;20788;-81
2021/05/15 05:16:54;;;;;;;4.38;3.97;;;9.00;99.90;;;;;;4899015;29;20454;-77
2021/05/15 05:19:23;;;;;;;4.70;4.30;;;9.10;99.90;;;;;;4920432;29;20816;-79
2021/05/15 05:21:49;;;;;;;6.40;4.50;;;9.40;99.90;;;;;;4929036;29;20413;-77
2021/05/15 05:24:15;;;;;;;4.43;4.03;;;9.30;99.90;;;;;;4932291;29;20421;-82
2021/05/15 05:26:41;;;;;;;4.80;4.40;;;9.50;99.90;;;;;;4931886;29;20591;-78
2021/05/15 05:29:09;;;;;;;4.22;3.90;;;9.70;99.90;;;;;;4906181;29;20404;-74
2021/05/15 05:31:36;;;;;;;7.43;4.07;;;9.90;99.90;;;;;;4901393;29;20858;-76
2021/05/15 05:34:02;;;;;;;4.25;3.92;;;9.90;99.90;;;;;;4913136;29;20412;-76
2021/05/15 05:36:27;;;;;;;4.95;4.55;;;10.10;99.90;;;;;;4926027;28;20388;-74
2021/05/15 05:38:53;;;;;;;4.40;4.00;;;10.20;99.90;;;;;;4927612;29;20405;-78
2021/05/15 05:41:20;;;;;;;4.80;4.30;;;10.30;99.90;;;;;;4912435;29;20480;-79
2021/05/15 05:43:46;;;;;;;4.40;4.00;;;10.40;99.90;;;;;;4907281;29;20443;-80
2021/05/15 05:46:12;;;;;;;4.47;4.07;;;10.60;99.90;;;;;;4926462;29;20438;-79
2021/05/15 05:48:37;;;;;;;4.30;3.90;;;10.60;99.90;;;;;;4930325;29;20485;-75
2021/05/15 05:51:03;;;;;;;4.40;3.97;;;10.70;99.90;;;;;;4950400;29;20832;-77
2021/05/15 05:53:29;;;;;;;4.60;4.20;;;10.80;99.90;;;;;;4914285;29;20480;-78
2021/05/15 05:55:54;;;;;;;4.27;3.87;;;10.90;99.90;;;;;;4877846;29;20844;-78
2021/05/15 05:58:20;;;;;;;3.58;3.28;;;11.00;99.90;;;;;;4927362;29;20404;-86
2021/05/15 06:00:46;;;;;;;3.80;3.50;;;11.20;99.90;;;;;;4885160;29;20403;-84
2021/05/15 06:03:12;;;;;;;3.70;3.40;;;11.40;99.90;;;;;;4896540;29;20407;-84
2021/05/15 06:05:37;;;;;;;3.50;3.20;;;11.60;99.90;;;;;;4894562;29;20426;-83
2021/05/15 06:08:07;;;;;;;3.57;3.27;;;11.70;99.90;;;;;;4911491;29;20400;-81
2021/05/15 06:10:35;;;;;;;3.10;2.90;;;11.90;99.90;;;;;;4927758;29;20422;-79
2021/05/15 06:13:01;;;;;;;3.85;3.50;;;12.20;99.90;;;;;;4912806;29;20396;-78
2021/05/15 06:15:26;;;;;;;3.67;3.20;;;12.30;99.90;;;;;;4926596;29;20461;-76
2021/05/15 06:17:52;;;;;;;3.90;3.50;;;12.30;99.90;;;;;;4892783;29;20413;-76
2021/05/15 06:20:18;;;;;;;3.17;2.97;;;12.40;99.90;;;;;;4912667;29;20415;-79
2021/05/15 06:22:43;;;;;;;3.90;3.47;;;12.50;99.90;;;;;;4895631;29;20539;-75
2021/05/15 06:25:10;;;;;;;3.10;2.90;;;12.80;99.90;;;;;;4917315;29;20466;-81
2021/05/15 06:27:35;;;;;;;3.00;2.80;;;13.00;99.90;;;;;;4903767;29;20413;-76
2021/05/15 06:30:01;;;;;;;3.40;2.85;;;13.10;99.90;;;;;;4899246;29;20402;-75
2021/05/15 06:32:27;;;;;;;3.03;2.73;;;13.40;99.90;;;;;;4931101;29;20447;-80
2021/05/15 06:34:52;;;;;;;2.38;2.17;;;13.50;99.90;;;;;;4946110;28;20887;-77
2021/05/15 06:37:18;;;;;;;2.40;2.10;;;13.60;99.90;;;;;;4901463;29;20734;-75
2021/05/15 06:39:43;;;;;;;2.90;2.60;;;13.70;99.90;;;;;;4932999;29;20424;-78
2021/05/15 06:42:09;;;;;;;2.60;2.40;;;13.90;99.90;;;;;;4902458;29;20465;-78
2021/05/15 06:44:35;;;;;;;2.20;2.10;;;14.10;99.90;;;;;;4889930;29;20405;-75
2021/05/15 06:47:01;;;;;;;2.47;2.27;;;14.20;99.90;;;;;;4911218;29;20401;-77
2021/05/15 06:49:27;;;;;;;2.50;2.30;;;14.30;99.90;;;;;;4931971;28;20493;-76
2021/05/15 06:51:52;;;;;;;2.37;2.17;;;14.50;99.90;;;;;;4919122;29;20418;-76
2021/05/15 06:54:18;;;;;;;2.80;2.60;;;14.60;99.90;;;;;;4934287;28;20402;-75
2021/05/15 06:56:43;;;;;;;2.20;2.00;;;14.90;99.90;;;;;;4904951;28;20473;-76
2021/05/15 06:59:09;;;;;;;2.13;2.03;;;15.10;99.90;;;;;;4907807;29;20408;-77
2021/05/15 07:01:35;;;;;;;2.03;1.93;;;15.20;99.90;;;;;;4939092;29;20417;-80
2021/05/15 07:04:00;;;;;;;2.28;2.17;;;15.40;99.90;;;;;;4929729;29;20409;-84
2021/05/15 07:06:26;;;;;;;2.67;2.30;;;15.40;99.90;;;;;;4933115;29;20402;-79
2021/05/15 07:08:52;;;;;;;2.97;2.00;;;15.50;99.90;;;;;;4900654;29;20472;-75
2021/05/15 07:11:17;;;;;;;2.35;2.15;;;15.60;99.90;;;;;;4918079;29;20413;-74
2021/05/15 07:13:43;;;;;;;2.28;2.10;;;15.80;99.90;;;;;;4923149;29;20503;-74
2021/05/15 07:16:09;;;;;;;2.10;1.88;;;16.00;99.90;;;;;;4916504;29;20587;-79
2021/05/15 07:18:34;;;;;;;2.17;1.97;;;16.20;99.90;;;;;;4932186;29;20851;-75
2021/05/15 07:21:00;;;;;;;2.20;2.05;;;16.30;99.90;;;;;;4925146;28;20406;-75
2021/05/15 07:23:26;;;;;;;2.40;2.20;;;16.30;99.90;;;;;;4916381;29;20489;-75
2021/05/15 07:25:52;;;;;;;3.45;2.25;;;16.40;99.90;;;;;;4919650;29;20440;-77
2021/05/15 07:28:18;;;;;;;1.67;1.58;;;16.50;99.90;;;;;;4917996;29;20406;-74
2021/05/15 07:30:43;;;;;;;2.58;1.52;;;16.60;99.90;;;;;;4933741;29;20433;-76
2021/05/15 07:33:11;;;;;;;1.88;1.77;;;16.80;99.90;;;;;;4933002;29;20414;-76
2021/05/15 07:35:37;;;;;;;2.10;1.90;;;17.00;99.90;;;;;;4933195;29;20422;-75
2021/05/15 07:38:03;;;;;;;1.60;1.50;;;17.10;99.90;;;;;;4928574;29;20822;-75
2021/05/15 07:40:28;;;;;;;1.70;1.60;;;17.20;99.90;;;;;;4891538;29;20485;-78
2021/05/15 07:42:54;;;;;;;2.80;1.55;;;17.40;99.90;;;;;;4893226;29;20972;-75
2021/05/15 07:45:20;;;;;;;1.93;1.83;;;17.70;99.90;;;;;;4900541;29;20804;-78
2021/05/15 07:47:45;;;;;;;1.65;1.55;;;17.90;99.90;;;;;;4929495;29;20817;-74
2021/05/15 07:50:11;;;;;;;2.80;2.47;;;17.90;99.90;;;;;;4920555;29;20525;-76
2021/05/15 07:52:37;;;;;;;2.28;1.83;;;17.80;99.90;;;;;;4931923;29;20766;-74
2021/05/15 07:55:04;;;;;;;3.03;1.60;;;18.00;99.90;;;;;;4932697;29;20394;-77
2021/05/15 07:57:30;;;;;;;1.50;1.40;;;18.10;99.90;;;;;;4927513;29;20394;-78
2021/05/15 07:59:56;;;;;;;1.63;1.52;;;18.20;99.90;;;;;;4920243;28;20485;-75
2021/05/15 08:02:21;;;;;;;1.90;1.57;;;18.40;99.90;;;;;;4899908;29;20438;-75
2021/05/15 08:04:47;;;;;;;1.73;1.48;;;18.40;99.90;;;;;;4916337;29;20453;-76
2021/05/15 08:07:13;;;;;;;1.20;1.20;;;18.40;99.90;;;;;;4930649;29;21239;-74
2021/05/15 08:09:39;;;;;;;1.38;1.27;;;18.50;99.90;;;;;;4933280;29;20425;-79
2021/05/15 08:12:05;;;;;;;1.40;1.30;;;18.50;99.90;;;;;;4918227;29;20923;-76
2021/05/15 08:14:30;;;;;;;2.20;2.00;;;18.70;99.90;;;;;;4917206;29;20768;-76
2021/05/15 08:16:56;;;;;;;2.60;2.40;;;18.90;99.90;;;;;;4931079;29;20498;-75
2021/05/15 08:19:22;;;;;;;1.70;1.60;;;19.10;99.90;;;;;;4929870;29;20982;-76
2021/05/15 08:21:47;;;;;;;1.43;1.33;;;19.40;99.90;;;;;;4912390;29;21315;-76
2021/05/15 08:24:13;;;;;;;1.48;1.38;;;19.60;99.90;;;;;;4915233;29;20946;-76
2021/05/15 08:26:40;;;;;;;1.55;1.45;;;19.60;99.90;;;;;;4914812;29;20897;-75
2021/05/15 08:29:11;;;;;;;1.30;1.25;;;19.60;99.90;;;;;;4937435;29;20430;-76
2021/05/15 08:31:37;;;;;;;1.58;1.48;;;19.70;99.90;;;;;;4916770;29;20447;-76
2021/05/15 08:34:03;;;;;;;1.30;1.20;;;19.80;99.90;;;;;;4897641;29;20966;-76
2021/05/15 08:36:29;;;;;;;1.27;1.20;;;19.90;99.90;;;;;;4915507;29;20547;-77
2021/05/15 08:38:56;;;;;;;1.17;1.17;;;20.20;99.90;;;;;;4941711;28;21080;-76
2021/05/15 08:41:21;;;;;;;1.40;1.30;;;20.00;99.90;;;;;;4913874;29;20417;-76
2021/05/15 08:43:47;;;;;;;1.42;1.33;;;19.90;99.90;;;;;;4917994;29;20465;-77
2021/05/15 08:46:13;;;;;;;1.20;1.20;;;19.90;99.90;;;;;;4914943;29;20900;-76
2021/05/15 08:48:39;;;;;;;1.53;1.30;;;20.30;99.90;;;;;;4914650;29;20430;-77
2021/05/15 08:51:05;;;;;;;3.47;1.77;;;20.50;99.90;;;;;;4936875;28;20459;-76
2021/05/15 08:53:31;;;;;;;1.40;1.30;;;20.80;99.90;;;;;;4923479;29;20494;-75
2021/05/15 08:55:56;;;;;;;1.60;1.50;;;21.00;99.90;;;;;;4916846;29;20425;-76
2021/05/15 08:58:22;;;;;;;1.70;1.50;;;21.00;99.90;;;;;;4915574;29;20460;-75
2021/05/15 09:00:49;;;;;;;1.60;1.50;;;21.20;99.90;;;;;;4902695;29;20407;-77
2021/05/15 09:03:14;;;;;;;1.05;1.05;;;21.50;99.90;;;;;;4904123;29;20410;-77
2021/05/15 09:05:42;;;;;;;1.13;1.07;;;21.70;99.90;;;;;;4933588;29;20540;-76
2021/05/15 09:08:10;;;;;;;1.58;1.00;;;21.60;99.90;;;;;;4928984;29;20567;-76
2021/05/15 09:10:37;;;;;;;2.55;0.80;;;21.60;99.90;;;;;;4912902;29;20484;-77
2021/05/15 09:13:13;;;;;;;0.60;0.60;;;21.50;99.90;;;;;;4897727;29;20428;-76
2021/05/15 09:15:41;;;;;;;0.80;0.80;;;21.60;99.90;;;;;;4896536;29;20401;-76
2021/05/15 09:18:07;;;;;;;0.70;0.70;;;21.50;99.90;;;;;;4895494;29;20472;-77
2021/05/15 09:20:37;;;;;;;30.60;5.10;;;21.50;99.90;;;;;;4937223;29;20882;-77
2021/05/15 09:23:32;;;;;;;1.10;0.80;;;21.60;99.90;;;;;;4899411;29;20413;-77
2021/05/15 09:26:05;;;;;;;1.10;0.70;;;21.80;99.90;;;;;;4899911;28;21278;-77
2021/05/15 09:28:44;;;;;;;2.03;1.13;;;22.10;99.90;;;;;;4886108;29;20419;-77
2021/05/15 09:31:16;;;;;;;1.40;1.17;;;21.90;99.90;;;;;;4899543;29;20438;-77
2021/05/15 09:33:44;;;;;;;1.00;0.80;;;22.10;99.90;;;;;;4928088;29;20402;-76
2021/05/15 09:36:23;;;;;;;0.60;0.60;;;22.10;99.90;;;;;;4932113;29;20468;-77
2021/05/15 09:39:14;;;;;;;0.77;0.77;;;22.10;99.90;;;;;;4901276;29;20414;-78
2021/05/15 09:41:52;;;;;;;0.70;0.70;;;22.60;99.90;;;;;;4915472;29;20432;-76
2021/05/15 09:44:25;;;;;;;0.88;0.88;;;22.50;99.90;;;;;;4899835;29;20959;-78
2021/05/15 09:46:51;;;;;;;1.13;1.08;;;22.20;99.90;;;;;;4929011;28;20500;-77
2021/05/15 09:49:20;;;;;;;0.80;0.80;;;21.90;99.90;;;;;;4933301;29;20479;-76
2021/05/15 09:51:52;;;;;;;1.08;0.88;;;21.70;99.90;;;;;;4916810;29;20477;-77
2021/05/15 09:54:29;;;;;;;0.90;0.85;;;21.60;99.90;;;;;;4932598;29;20418;-77
2021/05/15 09:57:00;;;;;;;0.60;0.60;;;21.50;99.90;;;;;;4909776;29;20932;-76
2021/05/15 09:59:26;;;;;;;0.70;0.70;;;21.50;99.90;;;;;;4934226;29;20401;-77
2021/05/15 10:01:55;;;;;;;0.80;0.80;;;21.40;99.90;;;;;;4912022;29;20401;-77
2021/05/15 10:04:24;;;;;;;0.60;0.60;;;21.40;99.90;;;;;;4931504;29;20398;-76
2021/05/15 10:06:51;;;;;;;0.70;0.70;;;21.60;99.90;;;;;;4931383;29;20429;-76
2021/05/15 10:09:35;;;;;;;0.60;0.60;;;21.60;99.90;;;;;;4933140;29;20394;-77
2021/05/15 10:12:02;;;;;;;1.05;1.02;;;21.80;99.90;;;;;;4919556;29;20776;-77
2021/05/15 10:14:28;;;;;;;1.55;1.45;;;21.80;99.90;;;;;;4915685;29;20412;-76
2021/05/15 10:16:54;;;;;;;0.50;0.50;;;21.60;99.00;;;;;;4917304;29;20416;-76
2021/05/15 10:19:20;;;;;;;1.08;0.77;;;21.60;97.90;;;;;;4909923;29;20403;-77
2021/05/15 10:21:46;;;;;;;0.65;0.65;;;21.30;98.30;;;;;;4902581;29;20406;-77
2021/05/15 10:24:31;;;;;;;0.50;0.50;;;21.20;99.90;;;;;;4933092;29;20456;-76
2021/05/15 10:27:03;;;;;;;0.60;0.50;;;21.10;98.70;;;;;;4929265;29;21046;-77
2021/05/15 10:29:38;;;;;;;0.57;0.57;;;21.20;99.90;;;;;;4934394;29;20417;-77
2021/05/15 10:32:04;;;;;;;0.50;0.50;;;21.10;98.60;;;;;;4942222;29;20686;-76
2021/05/15 10:34:31;;;;;;;0.60;0.60;;;21.10;99.30;;;;;;4931234;29;20479;-76
2021/05/15 10:36:57;;;;;;;0.63;0.63;;;21.10;99.90;;;;;;4896196;29;20414;-77
2021/05/15 10:39:26;;;;;;;1.23;0.87;;;21.20;99.90;;;;;;4925623;29;20407;-77
2021/05/15 10:41:51;;;;;;;1.20;0.70;;;21.10;99.90;;;;;;4914955;29;20499;-77
2021/05/15 10:44:17;;;;;;;0.50;0.50;;;21.20;99.20;;;;;;4932475;29;20863;-76
2021/05/15 10:46:47;;;;;;;0.70;0.70;;;21.10;99.90;;;;;;4932847;29;20897;-77
2021/05/15 10:49:21;;;;;;;0.77;0.70;;;21.20;99.90;;;;;;4918793;29;20404;-76
2021/05/15 10:51:51;;;;;;;0.60;0.60;;;21.00;99.50;;;;;;4915238;29;20422;-76
2021/05/15 10:54:32;;;;;;;0.55;0.55;;;21.00;99.90;;;;;;4933640;29;20489;-77
2021/05/15 10:57:14;;;;;;;0.43;0.43;;;21.00;99.90;;;;;;4917291;28;20397;-77
2021/05/15 10:59:41;;;;;;;0.60;0.60;;;21.20;99.90;;;;;;4916820;29;20894;-77
2021/05/15 11:02:08;;;;;;;0.50;0.50;;;21.60;99.90;;;;;;4931672;28;20434;-77
2021/05/15 11:04:45;;;;;;;0.63;0.63;;;21.70;98.00;;;;;;4919542;29;20403;-77
2021/05/15 11:07:11;;;;;;;0.60;0.60;;;21.90;99.90;;;;;;4927291;28;20394;-77
2021/05/15 11:09:38;;;;;;;0.60;0.60;;;21.70;97.40;;;;;;4904339;29;20836;-77
2021/05/15 11:12:04;;;;;;;0.90;0.60;;;21.30;95.60;;;;;;4933785;29;20789;-77
2021/05/15 11:14:31;;;;;;;0.50;0.50;;;21.30;98.80;;;;;;4948606;29;20413;-77
2021/05/15 11:17:04;;;;;;;0.57;0.57;;;21.20;99.20;;;;;;4895835;28;20555;-78
2021/05/15 11:19:29;;;;;;;2.30;1.00;;;21.10;98.00;;;;;;4924673;29;20402;-77
2021/05/15 11:21:55;;;;;;;1.42;0.57;;;21.00;96.70;;;;;;4912938;29;20413;-77
2021/05/15 11:24:34;;;;;;;0.50;0.50;;;20.80;95.20;;;;;;4917179;29;20414;-77
2021/05/15 11:27:09;;;;;;;0.80;0.70;;;20.70;96.80;;;;;;4918128;29;20413;-76
2021/05/15 11:29:36;;;;;;;0.40;0.40;;;20.50;96.70;;;;;;4902532;29;20421;-76
2021/05/15 11:32:23;;;;;;;0.50;0.50;;;20.40;96.00;;;;;;4900415;29;20413;-76
2021/05/15 11:34:49;;;;;;;0.60;0.60;;;20.30;97.80;;;;;;4907975;29;20437;-77
2021/05/15 11:37:15;;;;;;;0.57;0.57;;;20.20;97.30;;;;;;4887896;29;20409;-76
2021/05/15 11:39:41;;;;;;;1.07;1.07;;;20.10;97.90;;;;;;4928639;29;20437;-77
2021/05/15 11:42:11;;;;;;;2.55;1.25;;;20.10;99.00;;;;;;4894566;29;20414;-77
2021/05/15 11:44:40;;;;;;;1.30;1.20;;;20.10;98.40;;;;;;4931509;29;20431;-77
2021/05/15 11:47:08;;;;;;;0.77;0.68;;;20.10;99.90;;;;;;4906681;29;20491;-78
2021/05/15 11:49:35;;;;;;;0.70;0.60;;;20.00;98.90;;;;;;4935702;29;20401;-77
2021/05/15 11:52:02;;;;;;;0.45;0.45;;;19.80;98.90;;;;;;4928875;29;20901;-76
2021/05/15 11:54:28;;;;;;;0.45;0.45;;;19.70;99.10;;;;;;4933212;29;20477;-77
2021/05/15 11:56:56;;;;;;;0.60;0.60;;;19.60;99.90;;;;;;4899601;29;20500;-76
2021/05/15 11:59:22;;;;;;;0.50;0.50;;;19.40;99.70;;;;;;4940442;28;20413;-77
2021/05/15 12:01:48;;;;;;;8.98;7.28;;;19.30;99.90;;;;;;4901625;29;20411;-76
2021/05/15 12:04:17;;;;;;;1.13;0.77;;;19.30;99.90;;;;;;4929641;29;20425;-74
2021/05/15 12:06:43;;;;;;;1.33;0.80;;;18.70;99.90;;;;;;4898168;29;20558;-75
2021/05/15 12:09:17;;;;;;;3.00;0.90;;;18.00;99.90;;;;;;4907527;29;20416;-79
2021/05/15 12:11:43;;;;;;;0.90;0.80;;;17.20;99.90;;;;;;4908577;29;20409;-79
2021/05/15 12:14:09;;;;;;;0.60;0.60;;;16.50;99.90;;;;;;4904338;29;20410;-79
2021/05/15 12:16:36;;;;;;;1.30;0.70;;;16.10;99.90;;;;;;4924841;29;20438;-85
2021/05/15 12:19:02;;;;;;;0.80;0.60;;;16.20;99.90;;;;;;4914048;29;20422;-78
2021/05/15 12:21:28;;;;;;;0.60;0.60;;;16.00;99.90;;;;;;4914895;29;20457;-78
2021/05/15 12:24:00;;;;;;;0.90;0.60;;;15.80;99.90;;;;;;4901930;29;20496;-80
2021/05/15 12:26:26;;;;;;;0.40;0.40;;;15.90;99.90;;;;;;4908297;29;20410;-77
2021/05/15 12:28:52;;;;;;;0.50;0.50;;;16.20;99.90;;;;;;4917285;29;20493;-75
2021/05/15 12:31:27;;;;;;;0.50;0.50;;;16.60;99.90;;;;;;4916087;29;20469;-75
2021/05/15 12:33:53;;;;;;;1.35;0.75;;;16.90;99.90;;;;;;4948349;28;20850;-76
2021/05/15 12:36:19;;;;;;;0.40;0.40;;;17.30;99.90;;;;;;4912736;29;20770;-77
2021/05/15 12:38:49;;;;;;;0.50;0.50;;;17.90;99.90;;;;;;4882906;29;20406;-77
2021/05/15 12:41:23;;;;;;;0.50;0.50;;;18.40;99.90;;;;;;4926057;29;20411;-77
2021/05/15 12:44:02;;;;;;;0.50;0.50;;;18.80;99.90;;;;;;4921391;29;20490;-77
2021/05/15 12:46:30;;;;;;;0.98;0.68;;;19.40;99.90;;;;;;4931904;29;20485;-79
2021/05/15 12:48:57;;;;;;;0.70;0.40;;;20.10;99.90;;;;;;4933611;29;20416;-78